sensor_id;sensor_type;location;lat;lon;timestamp;pressure;altitude;pressure_sealevel;temperature;humidity
66385;BME280;53426;55.872;37.462;2023-02-01T00:00:21;97877.06;;;1.37;77.66
66385;BME280;53426;55.872;37.462;2023-02-01T00:02:47;97878.88;;;1.36;77.98
66385;BME280;53426;55.872;37.462;2023-02-01T00:05:13;97870.16;;;1.24;78.10
66385;BME280;53426;55.872;37.462;2023-02-01T00:07:39;97877.69;;;1.40;78.51
66385;BME280;53426;55.872;37.462;2023-02-01T00:10:06;97871.41;;;1.43;78.10
66385;BME280;53426;55.872;37.462;2023-02-01T00:12:32;97869.03;;;1.40;78.28
66385;BME280;53426;55.872;37.462;2023-02-01T00:14:58;97878.09;;;1.47;78.28
66385;BME280;53426;55.872;37.462;2023-02-01T00:17:24;97871.78;;;1.49;77.91
66385;BME280;53426;55.872;37.462;2023-02-01T00:19:50;97872.25;;;1.43;78.05
66385;BME280;53426;55.872;37.462;2023-02-01T00:22:16;97871.78;;;1.49;77.94
66385;BME280;53426;55.872;37.462;2023-02-01T00:24:42;97876.16;;;1.49;78.11
66385;BME280;53426;55.872;37.462;2023-02-01T00:27:07;97871.31;;;1.44;77.97
66385;BME280;53426;55.872;37.462;2023-02-01T00:29:33;97874.63;;;1.46;78.14
66385;BME280;53426;55.872;37.462;2023-02-01T00:31:59;97846.69;;;1.24;78.46
66385;BME280;53426;55.872;37.462;2023-02-01T00:34:26;97858.56;;;1.29;78.32
66385;BME280;53426;55.872;37.462;2023-02-01T00:36:52;97880.91;;;1.44;77.84
66385;BME280;53426;55.872;37.462;2023-02-01T00:39:17;97877.69;;;1.40;78.14
66385;BME280;53426;55.872;37.462;2023-02-01T00:41:44;97876.84;;;1.40;77.93
66385;BME280;53426;55.872;37.462;2023-02-01T00:44:10;97880.75;;;1.34;78.45
66385;BME280;53426;55.872;37.462;2023-02-01T00:46:36;97877.75;;;1.27;78.16
66385;BME280;53426;55.872;37.462;2023-02-01T00:49:03;97873.66;;;1.12;78.79
66385;BME280;53426;55.872;37.462;2023-02-01T00:51:29;97869.72;;;1.07;78.85
66385;BME280;53426;55.872;37.462;2023-02-01T00:53:56;97868.53;;;1.11;78.90
66385;BME280;53426;55.872;37.462;2023-02-01T00:56:22;97866.88;;;1.10;78.77
66385;BME280;53426;55.872;37.462;2023-02-01T00:58:48;97864.16;;;1.11;79.02
66385;BME280;53426;55.872;37.462;2023-02-01T01:01:23;97871.00;;;1.01;78.79
66385;BME280;53426;55.872;37.462;2023-02-01T01:03:56;97861.50;;;1.00;79.11
66385;BME280;53426;55.872;37.462;2023-02-01T01:06:30;97860.56;;;1.01;79.07
66385;BME280;53426;55.872;37.462;2023-02-01T01:08:59;97879.69;;;1.13;79.14
66385;BME280;53426;55.872;37.462;2023-02-01T01:11:30;97874.97;;;1.18;78.94
66385;BME280;53426;55.872;37.462;2023-02-01T01:13:57;97879.25;;;1.19;79.21
66385;BME280;53426;55.872;37.462;2023-02-01T01:16:27;97881.63;;;1.22;79.25
66385;BME280;53426;55.872;37.462;2023-02-01T01:18:55;97888.63;;;1.21;78.87
66385;BME280;53426;55.872;37.462;2023-02-01T01:21:21;97888.19;;;1.27;78.87
66385;BME280;53426;55.872;37.462;2023-02-01T01:23:47;97891.03;;;1.24;78.57
66385;BME280;53426;55.872;37.462;2023-02-01T01:26:16;97885.31;;;1.19;78.48
66385;BME280;53426;55.872;37.462;2023-02-01T01:28:42;97883.41;;;1.21;78.35
66385;BME280;53426;55.872;37.462;2023-02-01T01:31:10;97884.41;;;1.32;78.36
66385;BME280;53426;55.872;37.462;2023-02-01T01:33:37;97895.22;;;1.38;78.50
66385;BME280;53426;55.872;37.462;2023-02-01T01:36:07;97885.03;;;1.35;78.24
66385;BME280;53426;55.872;37.462;2023-02-01T01:38:37;97894.03;;;1.42;77.49
66385;BME280;53426;55.872;37.462;2023-02-01T01:41:03;97872.13;;;1.21;77.43
66385;BME280;53426;55.872;37.462;2023-02-01T01:43:49;97899.16;;;1.44;77.42
66385;BME280;53426;55.872;37.462;2023-02-01T01:46:23;97900.31;;;1.40;77.30
66385;BME280;53426;55.872;37.462;2023-02-01T01:48:57;97896.28;;;1.36;77.48
66385;BME280;53426;55.872;37.462;2023-02-01T01:51:25;97878.59;;;1.28;77.79
66385;BME280;53426;55.872;37.462;2023-02-01T01:56:35;97883.84;;;1.39;77.56
66385;BME280;53426;55.872;37.462;2023-02-01T01:59:02;97890.28;;;1.46;77.39
66385;BME280;53426;55.872;37.462;2023-02-01T02:01:28;97874.69;;;1.34;77.13
66385;BME280;53426;55.872;37.462;2023-02-01T02:03:54;97891.56;;;1.41;76.92
66385;BME280;53426;55.872;37.462;2023-02-01T02:06:44;97891.78;;;1.38;76.83
66385;BME280;53426;55.872;37.462;2023-02-01T02:09:14;97884.69;;;1.40;76.92
66385;BME280;53426;55.872;37.462;2023-02-01T02:11:40;97882.28;;;1.37;76.87
66385;BME280;53426;55.872;37.462;2023-02-01T02:14:09;97885.91;;;1.23;76.73
66385;BME280;53426;55.872;37.462;2023-02-01T02:31:21;97911.84;;;1.48;76.57
66385;BME280;53426;55.872;37.462;2023-02-01T02:33:58;97909.38;;;1.47;76.19
66385;BME280;53426;55.872;37.462;2023-02-01T02:36:31;97909.81;;;1.41;76.18
66385;BME280;53426;55.872;37.462;2023-02-01T02:39:34;97901.38;;;1.37;76.36
66385;BME280;53426;55.872;37.462;2023-02-01T02:45:16;97907.75;;;1.33;76.86
66385;BME280;53426;55.872;37.462;2023-02-01T02:51:07;97913.56;;;1.37;77.10
66385;BME280;53426;55.872;37.462;2023-02-01T02:56:43;97917.78;;;1.26;76.87
66385;BME280;53426;55.872;37.462;2023-02-01T02:59:28;97927.28;;;1.27;76.94
66385;BME280;53426;55.872;37.462;2023-02-01T03:02:15;97924.41;;;1.19;77.07
66385;BME280;53426;55.872;37.462;2023-02-01T03:05:00;97915.41;;;1.23;76.88
66385;BME280;53426;55.872;37.462;2023-02-01T03:10:35;97904.69;;;1.15;76.92
66385;BME280;53426;55.872;37.462;2023-02-01T03:13:12;97917.97;;;1.12;76.97
66385;BME280;53426;55.872;37.462;2023-02-01T03:16:20;97919.50;;;1.15;77.32
66385;BME280;53426;55.872;37.462;2023-02-01T03:18:59;97916.28;;;1.11;77.10
66385;BME280;53426;55.872;37.462;2023-02-01T03:21:34;97916.91;;;1.15;77.32
66385;BME280;53426;55.872;37.462;2023-02-01T03:24:05;97920.03;;;1.20;77.08
66385;BME280;53426;55.872;37.462;2023-02-01T03:26:36;97898.28;;;1.08;77.12
66385;BME280;53426;55.872;37.462;2023-02-01T03:29:13;97913.16;;;1.19;76.80
66385;BME280;53426;55.872;37.462;2023-02-01T03:31:42;97922.81;;;1.30;76.95
66385;BME280;53426;55.872;37.462;2023-02-01T03:34:08;97919.69;;;1.24;76.96
66385;BME280;53426;55.872;37.462;2023-02-01T03:36:40;97915.25;;;1.14;76.83
66385;BME280;53426;55.872;37.462;2023-02-01T03:39:15;97935.44;;;1.23;76.82
66385;BME280;53426;55.872;37.462;2023-02-01T03:44:34;97929.63;;;1.19;76.86
66385;BME280;53426;55.872;37.462;2023-02-01T03:47:16;97929.63;;;1.19;76.81
66385;BME280;53426;55.872;37.462;2023-02-01T03:49:47;97940.88;;;1.20;76.37
66385;BME280;53426;55.872;37.462;2023-02-01T03:52:32;97932.84;;;1.23;76.75
66385;BME280;53426;55.872;37.462;2023-02-01T03:55:03;97941.25;;;1.26;76.33
66385;BME280;53426;55.872;37.462;2023-02-01T03:57:35;97942.94;;;1.27;76.54
66385;BME280;53426;55.872;37.462;2023-02-01T04:00:16;97949.31;;;1.23;76.37
66385;BME280;53426;55.872;37.462;2023-02-01T04:02:44;97953.59;;;1.24;77.18
66385;BME280;53426;55.872;37.462;2023-02-01T04:05:10;97946.38;;;1.28;77.00
66385;BME280;53426;55.872;37.462;2023-02-01T04:07:41;97959.50;;;1.26;76.71
66385;BME280;53426;55.872;37.462;2023-02-01T04:10:07;97929.44;;;1.10;77.35
66385;BME280;53426;55.872;37.462;2023-02-01T04:12:35;97957.84;;;1.25;77.62
66385;BME280;53426;55.872;37.462;2023-02-01T04:15:01;97957.63;;;1.29;77.33
66385;BME280;53426;55.872;37.462;2023-02-01T04:17:29;97956.91;;;1.26;77.26
66385;BME280;53426;55.872;37.462;2023-02-01T04:19:55;97973.19;;;1.30;76.90
66385;BME280;53426;55.872;37.462;2023-02-01T04:22:21;97963.13;;;1.37;77.18
66385;BME280;53426;55.872;37.462;2023-02-01T04:24:47;97962.41;;;1.35;77.09
66385;BME280;53426;55.872;37.462;2023-02-01T04:27:13;97964.38;;;1.31;76.77
66385;BME280;53426;55.872;37.462;2023-02-01T04:29:39;97983.44;;;1.44;77.39
66385;BME280;53426;55.872;37.462;2023-02-01T04:32:10;97977.19;;;1.47;77.16
66385;BME280;53426;55.872;37.462;2023-02-01T04:34:36;97986.09;;;1.55;76.96
66385;BME280;53426;55.872;37.462;2023-02-01T04:37:02;97976.28;;;1.59;76.37
66385;BME280;53426;55.872;37.462;2023-02-01T04:39:28;97974.00;;;1.54;76.37
66385;BME280;53426;55.872;37.462;2023-02-01T04:41:54;97976.72;;;1.53;76.29
66385;BME280;53426;55.872;37.462;2023-02-01T04:44:20;97983.09;;;1.49;76.47
66385;BME280;53426;55.872;37.462;2023-02-01T04:46:46;97989.75;;;1.53;76.63
66385;BME280;53426;55.872;37.462;2023-02-01T04:49:13;97977.81;;;1.38;76.46
66385;BME280;53426;55.872;37.462;2023-02-01T04:51:40;97981.66;;;1.45;76.63
66385;BME280;53426;55.872;37.462;2023-02-01T04:54:06;97979.72;;;1.36;76.58
66385;BME280;53426;55.872;37.462;2023-02-01T04:56:32;97992.19;;;1.43;76.94
66385;BME280;53426;55.872;37.462;2023-02-01T04:59:00;97986.38;;;1.40;76.56
66385;BME280;53426;55.872;37.462;2023-02-01T05:01:28;98002.09;;;1.51;76.22
66385;BME280;53426;55.872;37.462;2023-02-01T05:03:54;98001.34;;;1.49;76.19
66385;BME280;53426;55.872;37.462;2023-02-01T05:06:20;97998.66;;;1.50;76.09
66385;BME280;53426;55.872;37.462;2023-02-01T05:08:46;98003.88;;;1.50;76.48
66385;BME280;53426;55.872;37.462;2023-02-01T05:11:13;98003.25;;;1.47;76.46
66385;BME280;53426;55.872;37.462;2023-02-01T05:13:58;98007.75;;;1.45;76.38
66385;BME280;53426;55.872;37.462;2023-02-01T05:16:25;98005.97;;;1.45;76.41
66385;BME280;53426;55.872;37.462;2023-02-01T05:18:51;98013.91;;;1.44;76.52
66385;BME280;53426;55.872;37.462;2023-02-01T05:21:17;98005.56;;;1.39;77.12
66385;BME280;53426;55.872;37.462;2023-02-01T05:23:43;98021.44;;;1.36;77.06
66385;BME280;53426;55.872;37.462;2023-02-01T05:26:27;98005.00;;;1.22;77.38
66385;BME280;53426;55.872;37.462;2023-02-01T05:28:53;98000.22;;;1.16;77.55
66385;BME280;53426;55.872;37.462;2023-02-01T05:31:19;98019.59;;;1.25;77.70
66385;BME280;53426;55.872;37.462;2023-02-01T05:33:45;98023.97;;;1.24;77.75
66385;BME280;53426;55.872;37.462;2023-02-01T05:36:11;98026.25;;;1.29;77.73
66385;BME280;53426;55.872;37.462;2023-02-01T05:38:37;98026.66;;;1.36;77.57
66385;BME280;53426;55.872;37.462;2023-02-01T05:41:02;97977.00;;;1.01;77.85
66385;BME280;53426;55.872;37.462;2023-02-01T05:43:28;98026.06;;;1.19;77.87
66385;BME280;53426;55.872;37.462;2023-02-01T05:45:54;98018.56;;;1.15;77.86
66385;BME280;53426;55.872;37.462;2023-02-01T05:48:20;98027.09;;;1.30;78.10
66385;BME280;53426;55.872;37.462;2023-02-01T05:50:46;98028.09;;;1.40;77.68
66385;BME280;53426;55.872;37.462;2023-02-01T05:53:12;98027.88;;;1.43;77.39
66385;BME280;53426;55.872;37.462;2023-02-01T05:55:38;98028.94;;;1.40;77.74
66385;BME280;53426;55.872;37.462;2023-02-01T05:58:05;98036.03;;;1.38;77.80
66385;BME280;53426;55.872;37.462;2023-02-01T06:00:31;98024.59;;;1.28;78.10
66385;BME280;53426;55.872;37.462;2023-02-01T06:02:57;98021.69;;;1.20;78.72
66385;BME280;53426;55.872;37.462;2023-02-01T06:05:23;98029.38;;;1.21;79.24
66385;BME280;53426;55.872;37.462;2023-02-01T06:07:49;98027.72;;;1.20;79.38
66385;BME280;53426;55.872;37.462;2023-02-01T06:10:17;98042.72;;;1.30;79.53
66385;BME280;53426;55.872;37.462;2023-02-01T06:12:44;98035.94;;;1.27;79.43
66385;BME280;53426;55.872;37.462;2023-02-01T06:15:14;98044.19;;;1.21;79.06
66385;BME280;53426;55.872;37.462;2023-02-01T06:17:45;98035.44;;;1.09;79.42
66385;BME280;53426;55.872;37.462;2023-02-01T06:20:13;98039.22;;;1.05;79.66
66385;BME280;53426;55.872;37.462;2023-02-01T06:22:39;98048.91;;;1.16;79.79
66385;BME280;53426;55.872;37.462;2023-02-01T06:25:06;98043.50;;;1.19;79.96
66385;BME280;53426;55.872;37.462;2023-02-01T06:27:32;98041.06;;;1.16;79.60
66385;BME280;53426;55.872;37.462;2023-02-01T06:29:58;98039.63;;;1.12;79.75
66385;BME280;53426;55.872;37.462;2023-02-01T06:32:24;98037.63;;;1.15;79.71
66385;BME280;53426;55.872;37.462;2023-02-01T06:34:50;98030.66;;;1.16;79.51
66385;BME280;53426;55.872;37.462;2023-02-01T06:37:19;98049.41;;;1.21;80.01
66385;BME280;53426;55.872;37.462;2023-02-01T06:39:44;98050.03;;;1.24;79.68
66385;BME280;53426;55.872;37.462;2023-02-01T06:42:10;98057.75;;;1.26;79.77
66385;BME280;53426;55.872;37.462;2023-02-01T06:44:36;98055.97;;;1.26;79.91
66385;BME280;53426;55.872;37.462;2023-02-01T06:47:03;98064.03;;;1.23;79.26
66385;BME280;53426;55.872;37.462;2023-02-01T06:49:29;98044.31;;;1.19;79.97
66385;BME280;53426;55.872;37.462;2023-02-01T06:51:55;98052.97;;;1.20;79.48
66385;BME280;53426;55.872;37.462;2023-02-01T06:54:21;98064.03;;;1.23;79.04
66385;BME280;53426;55.872;37.462;2023-02-01T06:56:46;98045.06;;;1.09;79.03
66385;BME280;53426;55.872;37.462;2023-02-01T06:59:12;98071.84;;;1.23;78.72
66385;BME280;53426;55.872;37.462;2023-02-01T07:01:38;98056.63;;;1.17;78.87
66385;BME280;53426;55.872;37.462;2023-02-01T07:04:04;98070.16;;;1.22;78.38
66385;BME280;53426;55.872;37.462;2023-02-01T07:06:29;98059.22;;;1.17;78.61
66385;BME280;53426;55.872;37.462;2023-02-01T07:08:57;98050.47;;;1.18;78.08
66385;BME280;53426;55.872;37.462;2023-02-01T07:11:23;98069.34;;;1.22;77.86
66385;BME280;53426;55.872;37.462;2023-02-01T07:13:49;98074.22;;;1.26;78.07
66385;BME280;53426;55.872;37.462;2023-02-01T07:16:18;98071.19;;;1.33;77.98
66385;BME280;53426;55.872;37.462;2023-02-01T07:18:45;98075.47;;;1.34;77.96
66385;BME280;53426;55.872;37.462;2023-02-01T07:21:11;98074.63;;;1.33;77.66
66385;BME280;53426;55.872;37.462;2023-02-01T07:23:38;98082.63;;;1.43;77.64
66385;BME280;53426;55.872;37.462;2023-02-01T07:26:06;98072.09;;;1.44;77.48
66385;BME280;53426;55.872;37.462;2023-02-01T07:28:57;98095.47;;;1.46;77.90
66385;BME280;53426;55.872;37.462;2023-02-01T07:31:31;98096.50;;;1.43;77.93
66385;BME280;53426;55.872;37.462;2023-02-01T07:33:57;98086.63;;;1.36;77.94
66385;BME280;53426;55.872;37.462;2023-02-01T07:36:24;98092.16;;;1.31;77.65
66385;BME280;53426;55.872;37.462;2023-02-01T07:38:50;98089.34;;;1.21;78.50
66385;BME280;53426;55.872;37.462;2023-02-01T07:41:17;98082.81;;;1.03;78.34
66385;BME280;53426;55.872;37.462;2023-02-01T07:43:44;98080.72;;;1.08;78.34
66385;BME280;53426;55.872;37.462;2023-02-01T07:46:10;98091.75;;;1.12;78.11
66385;BME280;53426;55.872;37.462;2023-02-01T07:48:36;98089.38;;;1.09;78.41
66385;BME280;53426;55.872;37.462;2023-02-01T07:51:04;98085.06;;;1.20;78.22
66385;BME280;53426;55.872;37.462;2023-02-01T07:53:32;98084.97;;;1.22;78.14
66385;BME280;53426;55.872;37.462;2023-02-01T07:55:59;98064.66;;;1.14;77.85
66385;BME280;53426;55.872;37.462;2023-02-01T07:58:26;98073.38;;;1.26;77.74
66385;BME280;53426;55.872;37.462;2023-02-01T08:00:53;98073.28;;;1.27;77.17
66385;BME280;53426;55.872;37.462;2023-02-01T08:03:37;98091.63;;;1.39;76.94
66385;BME280;53426;55.872;37.462;2023-02-01T08:06:04;98083.06;;;1.37;76.54
66385;BME280;53426;55.872;37.462;2023-02-01T08:08:30;98081.53;;;1.34;76.84
66385;BME280;53426;55.872;37.462;2023-02-01T08:11:01;98074.63;;;1.20;76.70
66385;BME280;53426;55.872;37.462;2023-02-01T08:13:27;98081.00;;;1.29;76.54
66385;BME280;53426;55.872;37.462;2023-02-01T08:16:04;98069.44;;;1.20;76.30
66385;BME280;53426;55.872;37.462;2023-02-01T08:18:31;98068.41;;;1.23;76.57
66385;BME280;53426;55.872;37.462;2023-02-01T08:21:23;98084.66;;;1.26;76.06
66385;BME280;53426;55.872;37.462;2023-02-01T08:23:50;98030.47;;;0.94;76.28
66385;BME280;53426;55.872;37.462;2023-02-01T08:26:21;98069.75;;;1.16;75.90
66385;BME280;53426;55.872;37.462;2023-02-01T08:28:53;98075.69;;;1.18;76.16
66385;BME280;53426;55.872;37.462;2023-02-01T08:31:21;98071.41;;;1.30;75.99
66385;BME280;53426;55.872;37.462;2023-02-01T08:33:50;98041.81;;;1.18;75.89
66385;BME280;53426;55.872;37.462;2023-02-01T08:36:17;98081.09;;;1.40;75.68
66385;BME280;53426;55.872;37.462;2023-02-01T08:38:43;98076.72;;;1.41;75.78
66385;BME280;53426;55.872;37.462;2023-02-01T08:41:11;98075.25;;;1.37;75.49
66385;BME280;53426;55.872;37.462;2023-02-01T08:43:38;98074.31;;;1.38;76.13
66385;BME280;53426;55.872;37.462;2023-02-01T08:46:04;98084.72;;;1.38;76.24
66385;BME280;53426;55.872;37.462;2023-02-01T08:48:32;98081.28;;;1.37;76.28
66385;BME280;53426;55.872;37.462;2023-02-01T08:51:04;98073.19;;;1.29;76.39
66385;BME280;53426;55.872;37.462;2023-02-01T08:53:31;98070.47;;;1.31;76.19
66385;BME280;53426;55.872;37.462;2023-02-01T08:55:58;98076.72;;;1.41;75.98
66385;BME280;53426;55.872;37.462;2023-02-01T08:58:24;98069.69;;;1.54;76.34
66385;BME280;53426;55.872;37.462;2023-02-01T09:00:50;98073.09;;;1.67;75.16
66385;BME280;53426;55.872;37.462;2023-02-01T09:03:16;98076.44;;;1.69;74.64
66385;BME280;53426;55.872;37.462;2023-02-01T09:05:44;98064.78;;;1.49;74.53
66385;BME280;53426;55.872;37.462;2023-02-01T09:08:12;98073.75;;;1.58;74.75
66385;BME280;53426;55.872;37.462;2023-02-01T09:10:41;98078.75;;;1.61;74.40
66385;BME280;53426;55.872;37.462;2023-02-01T09:13:08;98049.38;;;1.46;74.63
66385;BME280;53426;55.872;37.462;2023-02-01T09:15:34;98077.31;;;1.44;74.40
66385;BME280;53426;55.872;37.462;2023-02-01T09:18:01;98043.34;;;1.33;74.46
66385;BME280;53426;55.872;37.462;2023-02-01T09:20:27;98033.41;;;1.38;75.01
66385;BME280;53426;55.872;37.462;2023-02-01T09:22:54;98056.59;;;1.66;74.30
66385;BME280;53426;55.872;37.462;2023-02-01T09:25:22;98073.94;;;1.67;73.78
66385;BME280;53426;55.872;37.462;2023-02-01T09:27:48;98068.31;;;1.61;73.76
66385;BME280;53426;55.872;37.462;2023-02-01T09:30:14;98059.31;;;1.65;73.84
66385;BME280;53426;55.872;37.462;2023-02-01T09:32:40;98058.97;;;1.69;73.73
66385;BME280;53426;55.872;37.462;2023-02-01T09:35:06;98046.44;;;1.75;73.38
66385;BME280;53426;55.872;37.462;2023-02-01T09:37:32;98029.25;;;1.72;72.68
66385;BME280;53426;55.872;37.462;2023-02-01T09:39:58;98048.56;;;1.93;72.59
66385;BME280;53426;55.872;37.462;2023-02-01T09:45:21;98060.09;;;2.26;71.60
66385;BME280;53426;55.872;37.462;2023-02-01T09:47:59;98048.91;;;2.13;71.63
66385;BME280;53426;55.872;37.462;2023-02-01T09:50:36;98062.25;;;2.08;71.67
66385;BME280;53426;55.872;37.462;2023-02-01T09:53:09;98059.72;;;1.95;71.69
66385;BME280;53426;55.872;37.462;2023-02-01T09:55:41;98003.81;;;1.63;71.89
66385;BME280;53426;55.872;37.462;2023-02-01T09:58:13;98050.22;;;1.94;71.97
66385;BME280;53426;55.872;37.462;2023-02-01T10:00:54;98063.47;;;1.91;71.95
66385;BME280;53426;55.872;37.462;2023-02-01T10:03:26;98048.41;;;1.84;71.82
66385;BME280;53426;55.872;37.462;2023-02-01T10:08:55;98055.41;;;2.07;72.42
66385;BME280;53426;55.872;37.462;2023-02-01T10:14:20;98061.06;;;2.01;71.12
66385;BME280;53426;55.872;37.462;2023-02-01T10:20:00;98037.81;;;1.74;71.79
66385;BME280;53426;55.872;37.462;2023-02-01T10:28:24;98058.03;;;1.71;71.66
66385;BME280;53426;55.872;37.462;2023-02-01T10:30:55;98026.34;;;1.64;71.74
66385;BME280;53426;55.872;37.462;2023-02-01T10:33:33;98050.44;;;1.67;71.34
66385;BME280;53426;55.872;37.462;2023-02-01T10:36:56;98051.22;;;1.57;71.78
66385;BME280;53426;55.872;37.462;2023-02-01T10:39:14;98054.97;;;1.53;71.46
66385;BME280;53426;55.872;37.462;2023-02-01T10:41:41;98056.97;;;1.49;72.08
66385;BME280;53426;55.872;37.462;2023-02-01T10:44:14;98046.63;;;1.48;71.94
66385;BME280;53426;55.872;37.462;2023-02-01T10:46:40;98040.22;;;1.41;71.84
66385;BME280;53426;55.872;37.462;2023-02-01T10:49:15;98051.22;;;1.57;71.93
66385;BME280;53426;55.872;37.462;2023-02-01T10:52:15;98046.41;;;1.63;71.48
66385;BME280;53426;55.872;37.462;2023-02-01T10:54:44;98032.72;;;1.60;71.45
66385;BME280;53426;55.872;37.462;2023-02-01T10:57:32;98042.72;;;1.66;71.24
66385;BME280;53426;55.872;37.462;2023-02-01T11:00:03;98049.19;;;1.73;70.96
66385;BME280;53426;55.872;37.462;2023-02-01T11:02:44;98033.66;;;1.59;70.65
66385;BME280;53426;55.872;37.462;2023-02-01T11:05:10;98040.03;;;1.55;70.86
66385;BME280;53426;55.872;37.462;2023-02-01T11:07:39;98019.63;;;1.49;71.57
66385;BME280;53426;55.872;37.462;2023-02-01T11:13:02;98043.59;;;1.54;71.26
66385;BME280;53426;55.872;37.462;2023-02-01T11:15:29;98039.97;;;1.44;71.54
66385;BME280;53426;55.872;37.462;2023-02-01T11:17:55;98046.75;;;1.46;72.11
66385;BME280;53426;55.872;37.462;2023-02-01T11:22:57;98041.13;;;1.40;72.32
66385;BME280;53426;55.872;37.462;2023-02-01T11:25:24;98045.00;;;1.34;72.78
66385;BME280;53426;55.872;37.462;2023-02-01T11:27:53;98065.03;;;1.34;72.83
66385;BME280;53426;55.872;37.462;2023-02-01T11:30:41;98057.94;;;1.36;73.34
66385;BME280;53426;55.872;37.462;2023-02-01T11:33:13;98054.09;;;1.41;73.48
66385;BME280;53426;55.872;37.462;2023-02-01T11:35:41;98054.69;;;1.45;72.34
66385;BME280;53426;55.872;37.462;2023-02-01T11:38:19;98054.94;;;1.29;72.97
66385;BME280;53426;55.872;37.462;2023-02-01T11:40:46;98055.94;;;1.39;72.84
66385;BME280;53426;55.872;37.462;2023-02-01T11:43:27;98048.88;;;1.41;73.21
66385;BME280;53426;55.872;37.462;2023-02-01T11:45:58;98067.88;;;1.31;73.16
66385;BME280;53426;55.872;37.462;2023-02-01T11:48:27;98063.41;;;1.20;73.21
66385;BME280;53426;55.872;37.462;2023-02-01T11:56:15;98078.91;;;1.21;72.82
66385;BME280;53426;55.872;37.462;2023-02-01T12:01:52;98072.34;;;1.16;72.72
66385;BME280;53426;55.872;37.462;2023-02-01T12:07:42;98073.09;;;1.31;72.85
66385;BME280;53426;55.872;37.462;2023-02-01T12:15:22;98081.00;;;1.16;72.65
66385;BME280;53426;55.872;37.462;2023-02-01T12:26:38;98091.97;;;0.96;72.96
66385;BME280;53426;55.872;37.462;2023-02-01T12:42:43;98057.50;;;0.80;72.96
66385;BME280;53426;55.872;37.462;2023-02-01T12:45:30;98070.63;;;0.91;73.00
66385;BME280;53426;55.872;37.462;2023-02-01T12:48:18;98068.63;;;0.95;73.22
66385;BME280;53426;55.872;37.462;2023-02-01T12:50:56;98077.19;;;0.97;73.40
66385;BME280;53426;55.872;37.462;2023-02-01T12:53:42;98080.59;;;1.10;73.53
66385;BME280;53426;55.872;37.462;2023-02-01T12:56:18;98086.34;;;1.02;73.29
66385;BME280;53426;55.872;37.462;2023-02-01T12:58:50;98096.38;;;1.08;73.32
66385;BME280;53426;55.872;37.462;2023-02-01T13:01:28;98096.47;;;1.07;73.34
66385;BME280;53426;55.872;37.462;2023-02-01T13:04:24;98090.94;;;1.11;73.36
66385;BME280;53426;55.872;37.462;2023-02-01T13:06:56;98092.78;;;1.09;73.10
66385;BME280;53426;55.872;37.462;2023-02-01T13:09:41;98094.97;;;1.15;72.45
66385;BME280;53426;55.872;37.462;2023-02-01T13:12:19;98100.19;;;1.15;72.46
66385;BME280;53426;55.872;37.462;2023-02-01T13:14:57;98082.06;;;1.14;72.13
66385;BME280;53426;55.872;37.462;2023-02-01T13:17:31;98067.47;;;0.99;72.00
66385;BME280;53426;55.872;37.462;2023-02-01T13:20:39;98094.03;;;1.16;71.50
66385;BME280;53426;55.872;37.462;2023-02-01T13:23:29;98090.59;;;1.16;72.00
66385;BME280;53426;55.872;37.462;2023-02-01T13:25:58;98102.38;;;1.21;71.59
66385;BME280;53426;55.872;37.462;2023-02-01T13:37:14;98087.75;;;1.32;71.01
66385;BME280;53426;55.872;37.462;2023-02-01T13:39:52;98097.91;;;1.23;71.05
66385;BME280;53426;55.872;37.462;2023-02-01T13:42:31;98113.66;;;1.22;71.21
66385;BME280;53426;55.872;37.462;2023-02-01T13:45:52;98082.78;;;1.16;71.12
66385;BME280;53426;55.872;37.462;2023-02-01T13:48:27;98091.53;;;1.27;70.93
66385;BME280;53426;55.872;37.462;2023-02-01T13:50:56;98097.34;;;1.31;70.68
66385;BME280;53426;55.872;37.462;2023-02-01T13:53:48;98101.31;;;1.37;70.84
66385;BME280;53426;55.872;37.462;2023-02-01T13:56:18;98096.66;;;1.29;70.61
66385;BME280;53426;55.872;37.462;2023-02-01T13:58:47;98048.41;;;0.98;70.40
66385;BME280;53426;55.872;37.462;2023-02-01T14:04:06;98101.78;;;1.31;70.07
66385;BME280;53426;55.872;37.462;2023-02-01T14:11:44;98080.50;;;1.24;69.45
66385;BME280;53426;55.872;37.462;2023-02-01T14:19:28;98104.28;;;1.19;69.04
66385;BME280;53426;55.872;37.462;2023-02-01T14:21:59;98084.25;;;1.07;69.24
66385;BME280;53426;55.872;37.462;2023-02-01T14:24:29;98111.78;;;1.24;69.18
66385;BME280;53426;55.872;37.462;2023-02-01T14:26:59;98098.84;;;1.35;68.68
66385;BME280;53426;55.872;37.462;2023-02-01T14:29:31;98097.56;;;1.41;68.66
66385;BME280;53426;55.872;37.462;2023-02-01T14:32:16;98094.75;;;1.31;68.66
66385;BME280;53426;55.872;37.462;2023-02-01T14:42:53;98109.28;;;1.22;68.59
66385;BME280;53426;55.872;37.462;2023-02-01T14:47:48;98104.97;;;1.34;68.03
66385;BME280;53426;55.872;37.462;2023-02-01T14:55:37;98079.25;;;1.30;67.75
66385;BME280;53426;55.872;37.462;2023-02-01T14:58:07;98118.13;;;1.45;68.05
66385;BME280;53426;55.872;37.462;2023-02-01T15:00:51;98103.22;;;1.35;68.43
66385;BME280;53426;55.872;37.462;2023-02-01T15:03:31;98102.63;;;1.18;68.16
66385;BME280;53426;55.872;37.462;2023-02-01T15:06:00;98124.50;;;1.29;67.92
66385;BME280;53426;55.872;37.462;2023-02-01T15:08:35;98121.78;;;1.17;68.18
66385;BME280;53426;55.872;37.462;2023-02-01T15:11:10;98110.00;;;1.24;68.13
66385;BME280;53426;55.872;37.462;2023-02-01T15:13:39;98130.88;;;1.24;67.88
66385;BME280;53426;55.872;37.462;2023-02-01T15:16:24;98124.81;;;1.24;67.99
66385;BME280;53426;55.872;37.462;2023-02-01T15:19:06;98120.13;;;1.16;67.80
66385;BME280;53426;55.872;37.462;2023-02-01T15:21:42;98138.19;;;1.19;67.84
66385;BME280;53426;55.872;37.462;2023-02-01T15:24:11;98121.06;;;1.15;68.24
66385;BME280;53426;55.872;37.462;2023-02-01T15:26:37;98138.91;;;1.09;68.43
66385;BME280;53426;55.872;37.462;2023-02-01T15:29:02;98118.03;;;0.96;68.88
66385;BME280;53426;55.872;37.462;2023-02-01T15:31:41;98136.91;;;1.12;68.53